sensor_id;sensor_type;location;lat;lon;timestamp;temperature;humidity
57242;DHT22;43095;53.302;5.786;2023-04-03T00:01:04;2.60;99.90
57242;DHT22;43095;53.302;5.786;2023-04-03T00:03:31;2.60;99.90
57242;DHT22;43095;53.302;5.786;2023-04-03T00:05:59;2.60;99.90
57242;DHT22;43095;53.302;5.786;2023-04-03T00:08:26;2.50;99.90
57242;DHT22;43095;53.302;5.786;2023-04-03T00:10:53;2.60;99.90
57242;DHT22;43095;53.302;5.786;2023-04-03T00:13:20;2.50;99.90
57242;DHT22;43095;53.302;5.786;2023-04-03T00:15:47;2.50;99.90
57242;DHT22;43095;53.302;5.786;2023-04-03T00:18:14;2.40;99.90
57242;DHT22;43095;53.302;5.786;2023-04-03T00:20:42;2.40;99.90
57242;DHT22;43095;53.302;5.786;2023-04-03T00:23:09;2.40;99.90
57242;DHT22;43095;53.302;5.786;2023-04-03T00:25:36;2.30;99.90
57242;DHT22;43095;53.302;5.786;2023-04-03T00:28:04;2.30;99.90
57242;DHT22;43095;53.302;5.786;2023-04-03T00:30:32;2.20;99.90
57242;DHT22;43095;53.302;5.786;2023-04-03T00:33:00;2.20;99.90
57242;DHT22;43095;53.302;5.786;2023-04-03T00:35:29;2.20;99.90
57242;DHT22;43095;53.302;5.786;2023-04-03T00:38:06;2.10;99.90
57242;DHT22;43095;53.302;5.786;2023-04-03T00:40:37;2.10;99.90
57242;DHT22;43095;53.302;5.786;2023-04-03T00:43:12;2.10;99.90
57242;DHT22;43095;53.302;5.786;2023-04-03T00:45:42;2.10;99.90
57242;DHT22;43095;53.302;5.786;2023-04-03T00:48:13;2.00;99.90
57242;DHT22;43095;53.302;5.786;2023-04-03T00:50:43;2.00;99.90
57242;DHT22;43095;53.302;5.786;2023-04-03T00:53:16;2.00;99.90
57242;DHT22;43095;53.302;5.786;2023-04-03T00:55:46;1.90;99.90
57242;DHT22;43095;53.302;5.786;2023-04-03T00:58:17;1.90;99.90
57242;DHT22;43095;53.302;5.786;2023-04-03T01:00:50;1.80;99.90
57242;DHT22;43095;53.302;5.786;2023-04-03T01:03:24;1.80;99.90
57242;DHT22;43095;53.302;5.786;2023-04-03T01:05:53;1.80;99.90
57242;DHT22;43095;53.302;5.786;2023-04-03T01:08:20;1.80;99.90
57242;DHT22;43095;53.302;5.786;2023-04-03T01:10:49;1.80;99.90
57242;DHT22;43095;53.302;5.786;2023-04-03T01:13:27;1.70;99.90
57242;DHT22;43095;53.302;5.786;2023-04-03T01:15:55;1.80;99.90
57242;DHT22;43095;53.302;5.786;2023-04-03T01:18:24;1.70;99.90
57242;DHT22;43095;53.302;5.786;2023-04-03T01:21:16;1.70;99.90
57242;DHT22;43095;53.302;5.786;2023-04-03T01:24:11;1.70;99.90
57242;DHT22;43095;53.302;5.786;2023-04-03T01:26:35;1.70;99.90
57242;DHT22;43095;53.302;5.786;2023-04-03T01:29:03;1.60;99.90
57242;DHT22;43095;53.302;5.786;2023-04-03T01:31:58;1.60;99.90
57242;DHT22;43095;53.302;5.786;2023-04-03T01:34:28;1.50;99.90
57242;DHT22;43095;53.302;5.786;2023-04-03T01:36:55;1.50;99.90
57242;DHT22;43095;53.302;5.786;2023-04-03T01:39:23;1.50;99.90
57242;DHT22;43095;53.302;5.786;2023-04-03T01:41:50;1.50;99.90
57242;DHT22;43095;53.302;5.786;2023-04-03T01:44:25;1.50;99.90
57242;DHT22;43095;53.302;5.786;2023-04-03T01:46:52;1.50;99.90
57242;DHT22;43095;53.302;5.786;2023-04-03T01:49:20;1.50;99.90
57242;DHT22;43095;53.302;5.786;2023-04-03T01:51:47;1.40;99.90
57242;DHT22;43095;53.302;5.786;2023-04-03T01:54:14;1.40;99.90
57242;DHT22;43095;53.302;5.786;2023-04-03T01:56:41;1.40;99.90
57242;DHT22;43095;53.302;5.786;2023-04-03T01:59:08;1.40;99.90
57242;DHT22;43095;53.302;5.786;2023-04-03T02:01:35;1.30;99.90
57242;DHT22;43095;53.302;5.786;2023-04-03T02:04:04;1.30;99.90
57242;DHT22;43095;53.302;5.786;2023-04-03T02:06:31;1.30;99.90
57242;DHT22;43095;53.302;5.786;2023-04-03T02:08:58;1.30;99.90
57242;DHT22;43095;53.302;5.786;2023-04-03T02:11:25;1.20;99.90
57242;DHT22;43095;53.302;5.786;2023-04-03T02:13:53;1.20;99.90
57242;DHT22;43095;53.302;5.786;2023-04-03T02:16:20;1.10;99.90
57242;DHT22;43095;53.302;5.786;2023-04-03T02:18:48;1.20;99.90
57242;DHT22;43095;53.302;5.786;2023-04-03T02:21:16;1.20;99.90
57242;DHT22;43095;53.302;5.786;2023-04-03T02:23:43;1.20;99.90
57242;DHT22;43095;53.302;5.786;2023-04-03T02:26:13;1.10;99.90
57242;DHT22;43095;53.302;5.786;2023-04-03T02:28:41;1.10;99.90
57242;DHT22;43095;53.302;5.786;2023-04-03T02:31:09;1.20;99.90
57242;DHT22;43095;53.302;5.786;2023-04-03T02:33:39;1.20;99.90
57242;DHT22;43095;53.302;5.786;2023-04-03T02:36:09;1.20;99.90
57242;DHT22;43095;53.302;5.786;2023-04-03T02:38:39;1.10;99.90
57242;DHT22;43095;53.302;5.786;2023-04-03T02:41:08;1.10;99.90
57242;DHT22;43095;53.302;5.786;2023-04-03T02:43:36;1.00;99.90
57242;DHT22;43095;53.302;5.786;2023-04-03T02:46:05;1.00;99.90
57242;DHT22;43095;53.302;5.786;2023-04-03T02:48:32;1.00;99.90
57242;DHT22;43095;53.302;5.786;2023-04-03T02:50:59;0.90;99.90
57242;DHT22;43095;53.302;5.786;2023-04-03T02:53:26;0.90;99.90
57242;DHT22;43095;53.302;5.786;2023-04-03T02:55:53;0.80;99.90
57242;DHT22;43095;53.302;5.786;2023-04-03T02:58:20;0.90;99.90
57242;DHT22;43095;53.302;5.786;2023-04-03T03:00:48;0.80;99.90
57242;DHT22;43095;53.302;5.786;2023-04-03T03:03:15;0.90;99.90
57242;DHT22;43095;53.302;5.786;2023-04-03T03:05:42;0.80;99.90
57242;DHT22;43095;53.302;5.786;2023-04-03T03:08:09;0.90;99.90
57242;DHT22;43095;53.302;5.786;2023-04-03T03:10:36;0.90;99.90
57242;DHT22;43095;53.302;5.786;2023-04-03T03:13:06;0.90;99.90
57242;DHT22;43095;53.302;5.786;2023-04-03T03:15:33;0.80;99.90
57242;DHT22;43095;53.302;5.786;2023-04-03T03:18:01;0.80;99.90
57242;DHT22;43095;53.302;5.786;2023-04-03T03:20:28;0.80;99.90
57242;DHT22;43095;53.302;5.786;2023-04-03T03:22:57;0.80;99.90
57242;DHT22;43095;53.302;5.786;2023-04-03T03:25:24;0.70;99.90
57242;DHT22;43095;53.302;5.786;2023-04-03T03:27:51;0.80;99.90
57242;DHT22;43095;53.302;5.786;2023-04-03T03:30:18;0.70;99.90
57242;DHT22;43095;53.302;5.786;2023-04-03T03:32:46;0.80;99.90
57242;DHT22;43095;53.302;5.786;2023-04-03T03:35:13;0.80;99.90
57242;DHT22;43095;53.302;5.786;2023-04-03T03:37:40;0.70;99.90
57242;DHT22;43095;53.302;5.786;2023-04-03T03:40:08;0.70;99.90
57242;DHT22;43095;53.302;5.786;2023-04-03T03:42:37;0.70;99.90
57242;DHT22;43095;53.302;5.786;2023-04-03T03:45:04;0.70;99.90
57242;DHT22;43095;53.302;5.786;2023-04-03T03:47:31;0.70;99.90
57242;DHT22;43095;53.302;5.786;2023-04-03T03:49:58;0.70;99.90
57242;DHT22;43095;53.302;5.786;2023-04-03T03:52:26;0.70;99.90
57242;DHT22;43095;53.302;5.786;2023-04-03T03:54:53;0.70;99.90
57242;DHT22;43095;53.302;5.786;2023-04-03T03:57:20;0.70;99.90
57242;DHT22;43095;53.302;5.786;2023-04-03T03:59:50;0.70;99.90
57242;DHT22;43095;53.302;5.786;2023-04-03T04:02:19;0.60;99.90
57242;DHT22;43095;53.302;5.786;2023-04-03T04:04:46;0.60;99.90
57242;DHT22;43095;53.302;5.786;2023-04-03T04:07:13;0.60;99.90
57242;DHT22;43095;53.302;5.786;2023-04-03T04:09:41;0.60;99.90
57242;DHT22;43095;53.302;5.786;2023-04-03T04:12:09;0.60;99.90
57242;DHT22;43095;53.302;5.786;2023-04-03T04:14:37;0.60;99.90
57242;DHT22;43095;53.302;5.786;2023-04-03T04:17:07;0.60;99.90
57242;DHT22;43095;53.302;5.786;2023-04-03T04:19:36;0.50;99.90
57242;DHT22;43095;53.302;5.786;2023-04-03T04:22:03;0.60;99.90
57242;DHT22;43095;53.302;5.786;2023-04-03T04:24:32;0.50;99.90
57242;DHT22;43095;53.302;5.786;2023-04-03T04:27:01;0.50;99.90
57242;DHT22;43095;53.302;5.786;2023-04-03T04:29:31;0.50;99.90
57242;DHT22;43095;53.302;5.786;2023-04-03T04:32:04;0.40;99.90
57242;DHT22;43095;53.302;5.786;2023-04-03T04:34:31;0.40;99.90
57242;DHT22;43095;53.302;5.786;2023-04-03T04:37:02;0.40;99.90
57242;DHT22;43095;53.302;5.786;2023-04-03T04:39:30;0.40;99.90
57242;DHT22;43095;53.302;5.786;2023-04-03T04:41:58;0.30;99.90
57242;DHT22;43095;53.302;5.786;2023-04-03T04:44:30;0.30;99.90
57242;DHT22;43095;53.302;5.786;2023-04-03T04:46:57;0.30;99.90
57242;DHT22;43095;53.302;5.786;2023-04-03T04:49:24;0.30;99.90
57242;DHT22;43095;53.302;5.786;2023-04-03T04:51:51;0.30;99.90
57242;DHT22;43095;53.302;5.786;2023-04-03T04:54:25;0.30;99.90
57242;DHT22;43095;53.302;5.786;2023-04-03T04:56:52;0.30;99.90
57242;DHT22;43095;53.302;5.786;2023-04-03T04:59:20;0.20;99.90
57242;DHT22;43095;53.302;5.786;2023-04-03T05:01:49;0.20;99.90
57242;DHT22;43095;53.302;5.786;2023-04-03T05:04:17;0.20;99.90
57242;DHT22;43095;53.302;5.786;2023-04-03T05:06:48;0.10;99.90
57242;DHT22;43095;53.302;5.786;2023-04-03T05:09:20;0.10;99.90
57242;DHT22;43095;53.302;5.786;2023-04-03T05:11:50;0.10;99.90
57242;DHT22;43095;53.302;5.786;2023-04-03T05:14:20;0.10;99.90
57242;DHT22;43095;53.302;5.786;2023-04-03T05:16:47;0.00;99.90
57242;DHT22;43095;53.302;5.786;2023-04-03T05:19:18;0.00;99.90
57242;DHT22;43095;53.302;5.786;2023-04-03T05:21:45;0.10;99.90
57242;DHT22;43095;53.302;5.786;2023-04-03T05:24:15;0.00;99.90
57242;DHT22;43095;53.302;5.786;2023-04-03T05:26:43;0.00;99.90
57242;DHT22;43095;53.302;5.786;2023-04-03T05:29:12;0.10;99.90
57242;DHT22;43095;53.302;5.786;2023-04-03T05:31:39;0.10;99.90
57242;DHT22;43095;53.302;5.786;2023-04-03T05:34:09;0.10;99.90
57242;DHT22;43095;53.302;5.786;2023-04-03T05:36:47;0.10;99.90
57242;DHT22;43095;53.302;5.786;2023-04-03T05:39:15;0.10;99.90
57242;DHT22;43095;53.302;5.786;2023-04-03T05:41:44;0.10;99.90
57242;DHT22;43095;53.302;5.786;2023-04-03T05:44:11;0.20;99.90
57242;DHT22;43095;53.302;5.786;2023-04-03T05:46:39;0.20;99.90
57242;DHT22;43095;53.302;5.786;2023-04-03T05:49:08;0.20;99.90
57242;DHT22;43095;53.302;5.786;2023-04-03T05:51:37;0.20;99.90
57242;DHT22;43095;53.302;5.786;2023-04-03T05:54:24;0.30;99.90
57242;DHT22;43095;53.302;5.786;2023-04-03T05:56:57;0.30;99.90
57242;DHT22;43095;53.302;5.786;2023-04-03T05:59:25;0.30;99.90
57242;DHT22;43095;53.302;5.786;2023-04-03T06:01:54;0.40;99.90
57242;DHT22;43095;53.302;5.786;2023-04-03T06:04:21;0.50;99.90
57242;DHT22;43095;53.302;5.786;2023-04-03T06:06:54;0.50;99.90
57242;DHT22;43095;53.302;5.786;2023-04-03T06:09:24;0.50;99.90
57242;DHT22;43095;53.302;5.786;2023-04-03T06:11:53;0.50;99.90
57242;DHT22;43095;53.302;5.786;2023-04-03T06:14:25;0.60;99.90
57242;DHT22;43095;53.302;5.786;2023-04-03T06:16:53;0.60;99.90
57242;DHT22;43095;53.302;5.786;2023-04-03T06:19:21;0.70;99.90
57242;DHT22;43095;53.302;5.786;2023-04-03T06:21:51;0.70;99.90
57242;DHT22;43095;53.302;5.786;2023-04-03T06:24:19;0.80;99.90
57242;DHT22;43095;53.302;5.786;2023-04-03T06:26:48;0.80;99.90
57242;DHT22;43095;53.302;5.786;2023-04-03T06:29:17;0.80;99.90
57242;DHT22;43095;53.302;5.786;2023-04-03T06:31:44;0.90;99.90
57242;DHT22;43095;53.302;5.786;2023-04-03T06:34:11;0.90;99.90
57242;DHT22;43095;53.302;5.786;2023-04-03T06:36:39;1.00;99.90
57242;DHT22;43095;53.302;5.786;2023-04-03T06:39:08;1.10;99.90
57242;DHT22;43095;53.302;5.786;2023-04-03T06:41:35;1.20;99.90
57242;DHT22;43095;53.302;5.786;2023-04-03T06:44:03;1.20;99.90
57242;DHT22;43095;53.302;5.786;2023-04-03T06:46:33;1.30;99.90
57242;DHT22;43095;53.302;5.786;2023-04-03T06:49:00;1.30;99.90
57242;DHT22;43095;53.302;5.786;2023-04-03T06:51:28;1.30;99.90
57242;DHT22;43095;53.302;5.786;2023-04-03T06:53:59;1.40;99.90
57242;DHT22;43095;53.302;5.786;2023-04-03T06:56:27;1.50;99.90
57242;DHT22;43095;53.302;5.786;2023-04-03T06:58:56;1.50;99.90
57242;DHT22;43095;53.302;5.786;2023-04-03T07:01:29;1.60;99.90
57242;DHT22;43095;53.302;5.786;2023-04-03T07:03:57;1.60;99.90
57242;DHT22;43095;53.302;5.786;2023-04-03T07:06:25;1.70;99.90
57242;DHT22;43095;53.302;5.786;2023-04-03T07:08:55;1.80;99.90
57242;DHT22;43095;53.302;5.786;2023-04-03T07:11:22;1.90;99.90
57242;DHT22;43095;53.302;5.786;2023-04-03T07:13:50;1.90;99.90
57242;DHT22;43095;53.302;5.786;2023-04-03T07:16:18;2.00;99.90
57242;DHT22;43095;53.302;5.786;2023-04-03T07:18:46;2.10;99.90
57242;DHT22;43095;53.302;5.786;2023-04-03T07:21:13;2.20;99.90
57242;DHT22;43095;53.302;5.786;2023-04-03T07:23:41;2.30;99.90
57242;DHT22;43095;53.302;5.786;2023-04-03T07:26:08;2.40;99.90
57242;DHT22;43095;53.302;5.786;2023-04-03T07:28:36;2.50;99.90
57242;DHT22;43095;53.302;5.786;2023-04-03T07:31:08;2.50;99.90
57242;DHT22;43095;53.302;5.786;2023-04-03T07:33:39;2.60;99.90
57242;DHT22;43095;53.302;5.786;2023-04-03T07:36:07;2.70;99.90
57242;DHT22;43095;53.302;5.786;2023-04-03T07:38:35;2.80;99.90
57242;DHT22;43095;53.302;5.786;2023-04-03T07:41:03;2.90;99.90
57242;DHT22;43095;53.302;5.786;2023-04-03T07:43:30;3.00;99.90
57242;DHT22;43095;53.302;5.786;2023-04-03T07:45:58;3.00;99.90
57242;DHT22;43095;53.302;5.786;2023-04-03T07:48:25;3.20;99.90
57242;DHT22;43095;53.302;5.786;2023-04-03T07:50:53;3.20;99.90
57242;DHT22;43095;53.302;5.786;2023-04-03T07:53:20;3.30;99.90
57242;DHT22;43095;53.302;5.786;2023-04-03T07:55:51;3.40;99.90
57242;DHT22;43095;53.302;5.786;2023-04-03T07:58:22;3.40;99.90
57242;DHT22;43095;53.302;5.786;2023-04-03T08:00:52;3.50;99.90
57242;DHT22;43095;53.302;5.786;2023-04-03T08:03:19;3.60;99.90
57242;DHT22;43095;53.302;5.786;2023-04-03T08:05:48;3.60;99.90
57242;DHT22;43095;53.302;5.786;2023-04-03T08:08:19;3.60;99.90
57242;DHT22;43095;53.302;5.786;2023-04-03T08:10:51;3.80;99.90
57242;DHT22;43095;53.302;5.786;2023-04-03T08:13:20;3.80;99.90
57242;DHT22;43095;53.302;5.786;2023-04-03T08:15:48;3.90;99.90
57242;DHT22;43095;53.302;5.786;2023-04-03T08:18:15;3.90;99.90
57242;DHT22;43095;53.302;5.786;2023-04-03T08:20:43;4.10;99.90
57242;DHT22;43095;53.302;5.786;2023-04-03T08:23:10;4.20;99.90
57242;DHT22;43095;53.302;5.786;2023-04-03T08:25:41;4.30;99.90
57242;DHT22;43095;53.302;5.786;2023-04-03T08:28:10;4.40;99.90
57242;DHT22;43095;53.302;5.786;2023-04-03T08:30:41;4.30;99.90
57242;DHT22;43095;53.302;5.786;2023-04-03T08:33:09;4.40;99.90
57242;DHT22;43095;53.302;5.786;2023-04-03T08:35:41;4.50;99.90
57242;DHT22;43095;53.302;5.786;2023-04-03T08:38:09;4.60;99.90
57242;DHT22;43095;53.302;5.786;2023-04-03T08:40:37;4.70;99.90
57242;DHT22;43095;53.302;5.786;2023-04-03T08:43:48;4.70;99.90
57242;DHT22;43095;53.302;5.786;2023-04-03T08:46:24;4.90;99.90
57242;DHT22;43095;53.302;5.786;2023-04-03T08:48:54;4.90;99.90
57242;DHT22;43095;53.302;5.786;2023-04-03T08:51:24;5.00;99.90
57242;DHT22;43095;53.302;5.786;2023-04-03T08:53:55;5.10;99.90
57242;DHT22;43095;53.302;5.786;2023-04-03T08:56:24;5.20;99.90
57242;DHT22;43095;53.302;5.786;2023-04-03T08:59:00;5.40;99.90
57242;DHT22;43095;53.302;5.786;2023-04-03T09:01:36;5.40;99.90
57242;DHT22;43095;53.302;5.786;2023-04-03T09:04:16;5.50;99.90
57242;DHT22;43095;53.302;5.786;2023-04-03T09:06:49;5.60;99.90
57242;DHT22;43095;53.302;5.786;2023-04-03T09:17:03;5.90;99.90
57242;DHT22;43095;53.302;5.786;2023-04-03T09:22:21;6.30;99.90
57242;DHT22;43095;53.302;5.786;2023-04-03T09:25:03;6.40;86.70
57242;DHT22;43095;53.302;5.786;2023-04-03T09:27:32;6.50;96.20
57242;DHT22;43095;53.302;5.786;2023-04-03T09:29:59;6.60;98.20
57242;DHT22;43095;53.302;5.786;2023-04-03T09:32:29;6.80;97.30
57242;DHT22;43095;53.302;5.786;2023-04-03T09:35:01;6.80;92.60
57242;DHT22;43095;53.302;5.786;2023-04-03T09:37:51;7.00;84.20
57242;DHT22;43095;53.302;5.786;2023-04-03T09:42:54;7.10;91.40
57242;DHT22;43095;53.302;5.786;2023-04-03T09:45:31;7.30;90.60
57242;DHT22;43095;53.302;5.786;2023-04-03T09:50:56;7.40;77.60
57242;DHT22;43095;53.302;5.786;2023-04-03T09:56:17;7.70;73.80
57242;DHT22;43095;53.302;5.786;2023-04-03T10:01:31;7.90;73.10
57242;DHT22;43095;53.302;5.786;2023-04-03T10:04:25;8.00;70.90
57242;DHT22;43095;53.302;5.786;2023-04-03T10:07:03;8.00;68.30
57242;DHT22;43095;53.302;5.786;2023-04-03T10:09:31;8.20;66.10
57242;DHT22;43095;53.302;5.786;2023-04-03T10:14:29;8.30;66.60
57242;DHT22;43095;53.302;5.786;2023-04-03T10:17:23;8.40;63.40
57242;DHT22;43095;53.302;5.786;2023-04-03T10:28:53;8.90;63.10
57242;DHT22;43095;53.302;5.786;2023-04-03T10:39:14;9.30;59.00
57242;DHT22;43095;53.302;5.786;2023-04-03T10:42:15;9.50;58.80
57242;DHT22;43095;53.302;5.786;2023-04-03T10:45:01;9.70;60.20
57242;DHT22;43095;53.302;5.786;2023-04-03T10:50:29;10.10;58.40
57242;DHT22;43095;53.302;5.786;2023-04-03T10:53:14;10.00;54.30
57242;DHT22;43095;53.302;5.786;2023-04-03T11:00:55;10.40;52.40
57242;DHT22;43095;53.302;5.786;2023-04-03T11:03:34;10.30;51.70
57242;DHT22;43095;53.302;5.786;2023-04-03T11:06:07;10.40;52.30
57242;DHT22;43095;53.302;5.786;2023-04-03T11:08:49;10.40;52.20
57242;DHT22;43095;53.302;5.786;2023-04-03T11:11:26;10.50;50.90
57242;DHT22;43095;53.302;5.786;2023-04-03T11:14:10;10.70;52.10
57242;DHT22;43095;53.302;5.786;2023-04-03T11:16:43;10.90;51.40
57242;DHT22;43095;53.302;5.786;2023-04-03T11:19:22;10.80;50.90
57242;DHT22;43095;53.302;5.786;2023-04-03T11:22:13;10.90;49.90
57242;DHT22;43095;53.302;5.786;2023-04-03T11:25:06;10.90;49.50
57242;DHT22;43095;53.302;5.786;2023-04-03T11:28:00;10.90;49.00
57242;DHT22;43095;53.302;5.786;2023-04-03T11:33:23;11.30;48.50
57242;DHT22;43095;53.302;5.786;2023-04-03T11:35:57;11.30;46.90
57242;DHT22;43095;53.302;5.786;2023-04-03T11:38:35;11.40;48.20
57242;DHT22;43095;53.302;5.786;2023-04-03T11:41:08;11.60;48.00
57242;DHT22;43095;53.302;5.786;2023-04-03T11:43:41;11.70;49.00
57242;DHT22;43095;53.302;5.786;2023-04-03T11:46:09;11.40;49.00
57242;DHT22;43095;53.302;5.786;2023-04-03T11:51:37;11.50;48.90
57242;DHT22;43095;53.302;5.786;2023-04-03T11:57:44;12.00;48.00
57242;DHT22;43095;53.302;5.786;2023-04-03T12:24:33;12.80;45.10
57242;DHT22;43095;53.302;5.786;2023-04-03T12:48:48;13.60;42.70
57242;DHT22;43095;53.302;5.786;2023-04-03T12:51:19;13.60;42.60
57242;DHT22;43095;53.302;5.786;2023-04-03T12:53:49;13.00;43.90
57242;DHT22;43095;53.302;5.786;2023-04-03T12:56:32;13.10;44.40
57242;DHT22;43095;53.302;5.786;2023-04-03T12:59:20;13.40;44.20
57242;DHT22;43095;53.302;5.786;2023-04-03T13:01:59;13.60;43.00
57242;DHT22;43095;53.302;5.786;2023-04-03T13:04:28;13.80;41.00
57242;DHT22;43095;53.302;5.786;2023-04-03T13:06:55;13.90;43.80
57242;DHT22;43095;53.302;5.786;2023-04-03T13:09:25;13.60;42.00
57242;DHT22;43095;53.302;5.786;2023-04-03T13:12:11;13.70;41.90
57242;DHT22;43095;53.302;5.786;2023-04-03T13:14:39;14.20;40.70
57242;DHT22;43095;53.302;5.786;2023-04-03T13:17:14;14.00;42.80
57242;DHT22;43095;53.302;5.786;2023-04-03T13:19:43;14.00;42.90
57242;DHT22;43095;53.302;5.786;2023-04-03T13:24:51;14.60;43.50
57242;DHT22;43095;53.302;5.786;2023-04-03T13:27:21;14.40;43.70
57242;DHT22;43095;53.302;5.786;2023-04-03T13:29:54;14.50;43.30
57242;DHT22;43095;53.302;5.786;2023-04-03T13:32:24;14.30;42.30
57242;DHT22;43095;53.302;5.786;2023-04-03T13:34:53;14.30;42.60
57242;DHT22;43095;53.302;5.786;2023-04-03T13:37:30;14.70;43.00
57242;DHT22;43095;53.302;5.786;2023-04-03T13:40:11;14.60;41.20
57242;DHT22;43095;53.302;5.786;2023-04-03T13:42:41;14.40;41.40
57242;DHT22;43095;53.302;5.786;2023-04-03T13:45:23;14.50;42.10
57242;DHT22;43095;53.302;5.786;2023-04-03T13:48:06;14.40;42.50
57242;DHT22;43095;53.302;5.786;2023-04-03T13:51:27;14.90;43.10
57242;DHT22;43095;53.302;5.786;2023-04-03T13:57:14;15.40;41.70
57242;DHT22;43095;53.302;5.786;2023-04-03T13:59:42;14.90;43.00
57242;DHT22;43095;53.302;5.786;2023-04-03T14:02:15;15.20;41.50
57242;DHT22;43095;53.302;5.786;2023-04-03T14:04:51;15.40;41.10
57242;DHT22;43095;53.302;5.786;2023-04-03T14:07:20;14.80;39.90
57242;DHT22;43095;53.302;5.786;2023-04-03T14:09:48;14.90;41.00
57242;DHT22;43095;53.302;5.786;2023-04-03T14:12:37;15.50;41.20
57242;DHT22;43095;53.302;5.786;2023-04-03T14:15:26;15.20;40.50
57242;DHT22;43095;53.302;5.786;2023-04-03T14:17:55;15.00;40.10
57242;DHT22;43095;53.302;5.786;2023-04-03T14:20:25;14.90;39.80
57242;DHT22;43095;53.302;5.786;2023-04-03T14:22:54;15.30;41.40
57242;DHT22;43095;53.302;5.786;2023-04-03T14:25:22;15.60;41.90
57242;DHT22;43095;53.302;5.786;2023-04-03T14:27:53;15.10;38.90
57242;DHT22;43095;53.302;5.786;2023-04-03T14:30:32;14.80;39.90
57242;DHT22;43095;53.302;5.786;2023-04-03T14:33:00;14.40;41.20
57242;DHT22;43095;53.302;5.786;2023-04-03T14:35:28;15.30;41.00
57242;DHT22;43095;53.302;5.786;2023-04-03T14:37:55;14.90;41.70
57242;DHT22;43095;53.302;5.786;2023-04-03T14:40:25;14.00;42.50
57242;DHT22;43095;53.302;5.786;2023-04-03T14:42:53;13.20;44.40
57242;DHT22;43095;53.302;5.786;2023-04-03T14:45:23;14.40;44.50
57242;DHT22;43095;53.302;5.786;2023-04-03T14:47:55;13.70;44.40
57242;DHT22;43095;53.302;5.786;2023-04-03T14:50:25;14.40;45.30
57242;DHT22;43095;53.302;5.786;2023-04-03T14:52:55;13.80;44.10
57242;DHT22;43095;53.302;5.786;2023-04-03T14:55:24;14.20;45.30
57242;DHT22;43095;53.302;5.786;2023-04-03T14:57:52;14.20;45.80
57242;DHT22;43095;53.302;5.786;2023-04-03T15:00:21;14.20;43.70
57242;DHT22;43095;53.302;5.786;2023-04-03T15:02:48;13.50;45.40
57242;DHT22;43095;53.302;5.786;2023-04-03T15:05:16;13.50;46.00
57242;DHT22;43095;53.302;5.786;2023-04-03T15:07:53;13.30;45.60
57242;DHT22;43095;53.302;5.786;2023-04-03T15:10:23;13.70;46.10
57242;DHT22;43095;53.302;5.786;2023-04-03T15:12:52;14.50;45.30
57242;DHT22;43095;53.302;5.786;2023-04-03T15:15:21;13.90;44.80
57242;DHT22;43095;53.302;5.786;2023-04-03T15:17:54;14.50;46.10
57242;DHT22;43095;53.302;5.786;2023-04-03T15:20:26;14.00;45.70
57242;DHT22;43095;53.302;5.786;2023-04-03T15:22:54;13.90;45.60
57242;DHT22;43095;53.302;5.786;2023-04-03T15:25:23;13.40;45.20
57242;DHT22;43095;53.302;5.786;2023-04-03T15:27:56;13.80;44.20
57242;DHT22;43095;53.302;5.786;2023-04-03T15:30:23;13.80;45.40
57242;DHT22;43095;53.302;5.786;2023-04-03T15:32:50;13.70;45.00
57242;DHT22;43095;53.302;5.786;2023-04-03T15:35:18;13.70;45.50
57242;DHT22;43095;53.302;5.786;2023-04-03T15:37:45;13.90;45.30
57242;DHT22;43095;53.302;5.786;2023-04-03T15:40:12;13.60;44.60
57242;DHT22;43095;53.302;5.786;2023-04-03T15:42:39;13.40;45.10
57242;DHT22;43095;53.302;5.786;2023-04-03T15:45:07;13.60;45.70
57242;DHT22;43095;53.302;5.786;2023-04-03T15:47:36;13.30;45.00
57242;DHT22;43095;53.302;5.786;2023-04-03T15:50:03;13.90;45.30
57242;DHT22;43095;53.302;5.786;2023-04-03T15:52:33;13.80;44.70
57242;DHT22;43095;53.302;5.786;2023-04-03T15:55:00;13.90;44.40
57242;DHT22;43095;53.302;5.786;2023-04-03T15:57:27;13.40;44.70
57242;DHT22;43095;53.302;5.786;2023-04-03T15:59:55;13.60;44.30
57242;DHT22;43095;53.302;5.786;2023-04-03T16:02:23;13.80;44.70
57242;DHT22;43095;53.302;5.786;2023-04-03T16:04:50;13.90;45.10
57242;DHT22;43095;53.302;5.786;2023-04-03T16:07:17;13.00;44.30
57242;DHT22;43095;53.302;5.786;2023-04-03T16:09:44;13.20;43.30
57242;DHT22;43095;53.302;5.786;2023-04-03T16:12:11;13.80;44.40
57242;DHT22;43095;53.302;5.786;2023-04-03T16:14:38;13.10;43.50
57242;DHT22;43095;53.302;5.786;2023-04-03T16:17:05;12.30;44.20
57242;DHT22;43095;53.302;5.786;2023-04-03T16:19:32;12.60;44.00
57242;DHT22;43095;53.302;5.786;2023-04-03T16:21:59;12.10;44.80
57242;DHT22;43095;53.302;5.786;2023-04-03T16:24:27;11.80;45.60
57242;DHT22;43095;53.302;5.786;2023-04-03T16:26:54;12.20;45.00
57242;DHT22;43095;53.302;5.786;2023-04-03T16:29:21;12.50;46.10
57242;DHT22;43095;53.302;5.786;2023-04-03T16:31:48;12.40;45.50
57242;DHT22;43095;53.302;5.786;2023-04-03T16:34:15;12.40;45.40
57242;DHT22;43095;53.302;5.786;2023-04-03T16:36:42;12.90;45.30
57242;DHT22;43095;53.302;5.786;2023-04-03T16:39:09;12.70;45.10
57242;DHT22;43095;53.302;5.786;2023-04-03T16:41:36;12.40;46.00
57242;DHT22;43095;53.302;5.786;2023-04-03T16:44:04;12.00;47.00
57242;DHT22;43095;53.302;5.786;2023-04-03T16:46:33;12.20;47.50
57242;DHT22;43095;53.302;5.786;2023-04-03T16:49:01;11.90;47.20
57242;DHT22;43095;53.302;5.786;2023-04-03T16:51:28;11.70;47.40
57242;DHT22;43095;53.302;5.786;2023-04-03T16:53:55;11.00;48.40
57242;DHT22;43095;53.302;5.786;2023-04-03T16:56:22;11.10;49.30
57242;DHT22;43095;53.302;5.786;2023-04-03T16:58:49;11.30;49.80
57242;DHT22;43095;53.302;5.786;2023-04-03T17:01:18;11.10;49.50
57242;DHT22;43095;53.302;5.786;2023-04-03T17:03:46;10.80;49.30
57242;DHT22;43095;53.302;5.786;2023-04-03T17:06:18;10.50;49.40
57242;DHT22;43095;53.302;5.786;2023-04-03T17:08:47;10.50;49.90
57242;DHT22;43095;53.302;5.786;2023-04-03T17:11:27;10.30;50.20
57242;DHT22;43095;53.302;5.786;2023-04-03T17:13:54;10.00;50.60
57242;DHT22;43095;53.302;5.786;2023-04-03T17:16:22;9.40;51.60
57242;DHT22;43095;53.302;5.786;2023-04-03T17:18:50;9.00;52.30
57242;DHT22;43095;53.302;5.786;2023-04-03T17:21:17;8.80;53.80
57242;DHT22;43095;53.302;5.786;2023-04-03T17:23:52;8.70;54.70
57242;DHT22;43095;53.302;5.786;2023-04-03T17:26:20;8.50;55.50
57242;DHT22;43095;53.302;5.786;2023-04-03T17:28:47;8.20;56.40
57242;DHT22;43095;53.302;5.786;2023-04-03T17:31:15;8.10;57.50
57242;DHT22;43095;53.302;5.786;2023-04-03T17:33:42;8.00;57.90
57242;DHT22;43095;53.302;5.786;2023-04-03T17:36:10;7.80;58.80
57242;DHT22;43095;53.302;5.786;2023-04-03T17:38:37;7.70;59.80
57242;DHT22;43095;53.302;5.786;2023-04-03T17:41:07;7.70;61.00
57242;DHT22;43095;53.302;5.786;2023-04-03T17:43:35;7.40;62.30
57242;DHT22;43095;53.302;5.786;2023-04-03T17:46:07;7.30;63.00
57242;DHT22;43095;53.302;5.786;2023-04-03T17:48:36;7.30;64.70
57242;DHT22;43095;53.302;5.786;2023-04-03T17:51:05;7.10;66.80